createdAt,value
2023-01-11T00:00:00.410Z,13.90
2023-01-11T00:02:28.867Z,6.07
2023-01-11T00:04:57.042Z,8.02
2023-01-11T00:07:25.404Z,11.15
2023-01-11T00:09:53.437Z,9.35
2023-01-11T00:12:22.955Z,6.75
2023-01-11T00:17:18.877Z,6.70
2023-01-11T00:19:46.919Z,8.50
2023-01-11T00:22:15.052Z,6.28
2023-01-11T00:24:43.184Z,10.23
2023-01-11T00:27:11.221Z,5.32
2023-01-11T00:29:40.673Z,6.97
2023-01-11T00:34:36.713Z,9.82
2023-01-11T00:37:05.304Z,9.70
2023-01-11T00:39:33.354Z,8.77
2023-01-11T00:42:18.784Z,11.88
2023-01-11T00:45:05.829Z,8.18
2023-01-11T00:47:51.390Z,6.53
2023-01-11T00:50:19.519Z,8.98
2023-01-11T00:52:47.661Z,6.55
2023-01-11T00:55:15.873Z,9.52
2023-01-11T00:57:43.958Z,7.57
2023-01-11T01:00:14.560Z,6.97
2023-01-11T01:02:42.719Z,11.10
2023-01-11T01:05:11.277Z,9.85
2023-01-11T01:07:39.459Z,14.02
2023-01-11T01:10:09.235Z,10.43
2023-01-11T01:12:55.285Z,8.85
2023-01-11T01:15:25.042Z,10.02
2023-01-11T01:17:55.000Z,7.10
2023-01-11T01:20:23.854Z,7.00
2023-01-11T01:22:52.464Z,6.35
2023-01-11T01:25:20.774Z,10.82
2023-01-11T01:27:48.937Z,11.02
2023-01-11T01:30:17.469Z,9.35
2023-01-11T01:32:46.953Z,7.70
2023-01-11T01:37:44.461Z,7.43
2023-01-11T01:40:13.569Z,9.70
2023-01-11T01:42:41.606Z,10.77
2023-01-11T01:45:23.740Z,10.48
2023-01-11T01:47:56.910Z,9.20
2023-01-11T01:50:29.051Z,11.82
2023-01-11T01:53:02.956Z,11.98
2023-01-11T01:55:34.474Z,13.07
2023-01-11T01:58:05.998Z,10.70
2023-01-11T02:00:34.291Z,13.82
2023-01-11T02:03:04.136Z,12.98
2023-01-11T02:05:32.474Z,10.68
2023-01-11T02:08:01.693Z,9.25
2023-01-11T02:10:29.950Z,19.00
2023-01-11T02:13:01.525Z,9.50
2023-01-11T02:15:30.447Z,10.70
2023-01-11T02:17:58.817Z,22.98
2023-01-11T02:20:43.686Z,12.48
2023-01-11T02:23:46.019Z,16.10
2023-01-11T02:26:48.375Z,10.68
2023-01-11T02:29:28.123Z,12.35
2023-01-11T02:32:07.028Z,11.32
2023-01-11T02:34:43.001Z,10.13
2023-01-11T02:37:22.826Z,13.60
2023-01-11T02:40:01.296Z,12.77
2023-01-11T02:42:56.375Z,10.50
2023-01-11T02:45:39.532Z,11.52
2023-01-11T02:48:17.495Z,13.68
2023-01-11T02:50:52.177Z,14.75
2023-01-11T02:53:26.728Z,10.07
2023-01-11T02:55:59.716Z,12.40
2023-01-11T02:58:30.632Z,13.65
2023-01-11T03:01:00.717Z,14.73
2023-01-11T03:03:29.457Z,14.88
2023-01-11T03:06:02.933Z,10.60
2023-01-11T03:09:06.913Z,13.63
2023-01-11T03:12:06.294Z,12.80
2023-01-11T03:17:22.596Z,12.45
2023-01-11T03:19:53.503Z,16.10
2023-01-11T03:22:28.347Z,17.80
2023-01-11T03:25:02.171Z,12.20
2023-01-11T03:27:36.702Z,9.75
2023-01-11T03:30:09.212Z,13.85
2023-01-11T03:32:45.991Z,11.38
2023-01-11T03:35:21.305Z,6.25
2023-01-11T03:37:56.505Z,11.88
2023-01-11T03:40:29.271Z,11.38
2023-01-11T03:43:13.318Z,11.35
2023-01-11T03:45:47.487Z,15.50
2023-01-11T03:48:20.450Z,14.93
2023-01-11T03:50:50.716Z,10.40
2023-01-11T03:53:20.934Z,14.20
2023-01-11T03:55:53.885Z,10.95
2023-01-11T03:58:22.047Z,11.13
2023-01-11T04:00:51.468Z,14.82
2023-01-11T04:05:53.640Z,11.88
2023-01-11T04:08:21.732Z,11.77
2023-01-11T04:10:50.036Z,17.20
2023-01-11T04:13:18.157Z,14.30
2023-01-11T04:15:46.345Z,14.38
2023-01-11T04:18:14.433Z,19.77
2023-01-11T04:20:43.982Z,13.57
2023-01-11T04:23:12.045Z,19.52
2023-01-11T04:25:40.120Z,13.48
2023-01-11T04:28:08.212Z,14.10
2023-01-11T04:30:37.264Z,14.98
2023-01-11T04:33:05.403Z,16.02
2023-01-11T04:35:33.510Z,16.45
2023-01-11T04:38:02.966Z,19.90
2023-01-11T04:43:02.143Z,16.90
2023-01-11T04:45:30.650Z,11.95
2023-01-11T04:47:59.579Z,15.20
2023-01-11T04:50:28.501Z,17.58
2023-01-11T04:52:56.659Z,11.45
2023-01-11T04:55:26.100Z,11.50
2023-01-11T05:00:22.695Z,14.80
2023-01-11T05:02:50.765Z,8.52
2023-01-11T05:05:18.952Z,13.32
2023-01-11T05:07:49.144Z,20.38
2023-01-11T05:10:20.720Z,16.50
2023-01-11T05:12:50.476Z,16.70
2023-01-11T05:17:46.594Z,17.45
2023-01-11T05:20:14.700Z,13.98
2023-01-11T05:22:42.780Z,12.45
2023-01-11T05:25:11.156Z,15.95
2023-01-11T05:27:39.212Z,15.57
2023-01-11T05:30:10.308Z,15.55
2023-01-11T05:32:38.355Z,10.45
2023-01-11T05:35:10.012Z,12.82
2023-01-11T05:37:38.156Z,14.40
2023-01-11T05:40:07.762Z,13.95
2023-01-11T05:42:35.929Z,13.50
2023-01-11T05:45:21.967Z,15.25
2023-01-11T05:47:54.093Z,13.63
2023-01-11T05:50:22.501Z,11.52
2023-01-11T05:52:50.567Z,12.70
2023-01-11T05:55:19.283Z,18.10
2023-01-11T05:57:47.714Z,12.18
2023-01-11T06:00:16.758Z,14.77
2023-01-11T06:02:44.960Z,11.95
2023-01-11T06:05:14.609Z,16.73
2023-01-11T06:10:11.866Z,14.02
2023-01-11T06:12:39.955Z,14.27
2023-01-11T06:15:09.113Z,12.48
2023-01-11T06:17:37.160Z,18.77
2023-01-11T06:20:06.239Z,17.48
2023-01-11T06:22:35.676Z,15.45
2023-01-11T06:25:03.810Z,15.73
2023-01-11T06:27:31.875Z,16.50
2023-01-11T06:29:59.951Z,21.92
2023-01-11T06:32:29.964Z,14.77
2023-01-11T06:34:58.008Z,19.90
2023-01-11T06:37:26.149Z,15.18
2023-01-11T06:39:55.589Z,14.43
2023-01-11T06:42:23.668Z,16.50
2023-01-11T06:44:51.968Z,12.75
2023-01-11T06:47:20.035Z,16.05
2023-01-11T06:49:48.063Z,15.23
2023-01-11T06:52:16.291Z,17.58
2023-01-11T06:54:44.397Z,16.20
2023-01-11T06:57:14.079Z,16.25
2023-01-11T06:59:43.372Z,14.32
2023-01-11T07:02:11.901Z,15.80
2023-01-11T07:04:40.050Z,15.07
2023-01-11T07:07:08.095Z,13.90
2023-01-11T07:09:36.127Z,11.73
2023-01-11T07:12:04.335Z,10.82
2023-01-11T07:14:33.808Z,15.57
2023-01-11T07:19:29.728Z,14.23
2023-01-11T07:21:57.789Z,11.52
2023-01-11T07:24:25.909Z,13.82
2023-01-11T07:26:55.636Z,16.20
2023-01-11T07:29:23.727Z,11.43
2023-01-11T07:31:53.165Z,13.32
2023-01-11T07:34:21.254Z,13.77
2023-01-11T07:36:49.319Z,15.35
2023-01-11T07:39:17.462Z,16.60
2023-01-11T07:42:03.147Z,16.20
2023-01-11T07:44:31.488Z,14.18
2023-01-11T07:47:00.977Z,20.98
2023-01-11T07:51:57.055Z,17.48
2023-01-11T07:54:25.677Z,15.93
2023-01-11T07:56:53.779Z,14.17
2023-01-11T07:59:21.899Z,21.50
2023-01-11T08:01:49.963Z,22.80
2023-01-11T08:04:19.410Z,16.77
2023-01-11T08:06:47.582Z,18.05
2023-01-11T08:09:15.648Z,20.85
2023-01-11T08:12:01.011Z,20.45
2023-01-11T08:14:41.071Z,15.10
2023-01-11T08:17:10.535Z,18.95
2023-01-11T08:19:40.345Z,18.70
2023-01-11T08:22:08.740Z,17.17
2023-01-11T08:24:36.917Z,20.95
2023-01-11T08:27:05.379Z,14.43
2023-01-11T08:29:33.679Z,15.27
2023-01-11T08:32:02.130Z,16.58
2023-01-11T08:34:30.316Z,16.73
2023-01-11T08:37:02.010Z,13.77
2023-01-11T08:39:31.113Z,16.17
2023-01-11T08:41:59.302Z,16.92
2023-01-11T08:44:35.018Z,25.55
2023-01-11T08:47:03.537Z,23.52
2023-01-11T08:49:31.803Z,17.52
2023-01-11T08:52:01.291Z,18.05
2023-01-11T08:54:29.385Z,15.85
2023-01-11T08:56:57.543Z,15.75
2023-01-11T08:59:25.613Z,14.50
2023-01-11T09:01:53.742Z,13.80
2023-01-11T09:04:25.755Z,14.35
2023-01-11T09:06:54.694Z,16.08
2023-01-11T09:09:24.178Z,11.32
2023-01-11T09:14:24.459Z,13.88
2023-01-11T09:16:52.612Z,13.25
2023-01-11T09:19:21.332Z,19.83
2023-01-11T09:21:49.772Z,14.85
2023-01-11T09:24:17.988Z,14.40
2023-01-11T09:26:47.504Z,15.65
2023-01-11T09:31:43.605Z,17.42
2023-01-11T09:34:12.800Z,18.25
2023-01-11T09:36:41.286Z,14.02
2023-01-11T09:39:12.805Z,17.70
2023-01-11T09:42:12.903Z,18.45
2023-01-11T09:44:51.117Z,17.67
2023-01-11T09:47:32.165Z,16.75
2023-01-11T09:50:03.742Z,19.55
2023-01-11T09:52:39.624Z,20.00
2023-01-11T09:55:15.182Z,22.80
2023-01-11T09:57:55.242Z,21.25
2023-01-11T10:00:31.339Z,21.95
2023-01-11T10:03:20.875Z,20.00
2023-01-11T10:18:32.991Z,18.27
2023-01-11T10:20:35.483Z,14.98
2023-01-11T10:23:08.616Z,16.90
2023-01-11T10:25:47.913Z,17.23
2023-01-11T10:28:24.004Z,18.20
2023-01-11T10:31:08.079Z,16.13
2023-01-11T10:34:05.969Z,15.70
2023-01-11T10:36:55.673Z,16.38
2023-01-11T10:39:46.556Z,12.18
2023-01-11T10:42:21.624Z,17.10
2023-01-11T10:45:00.090Z,14.25
2023-01-11T10:47:37.081Z,14.45
2023-01-11T10:50:15.823Z,15.23
2023-01-11T10:52:51.973Z,12.23
2023-01-11T10:55:27.633Z,12.40
2023-01-11T10:58:09.409Z,10.45
2023-01-11T11:00:44.633Z,11.57
2023-01-11T11:03:41.571Z,12.48
2023-01-11T11:06:21.328Z,12.73
2023-01-11T11:08:55.870Z,9.02
2023-01-11T11:11:30.734Z,7.88
2023-01-11T11:14:04.805Z,6.65
2023-01-11T11:16:46.952Z,4.63
2023-01-11T11:19:20.971Z,6.05
2023-01-11T11:21:52.236Z,5.88
2023-01-11T11:24:27.607Z,4.90
2023-01-11T11:27:08.806Z,4.78
2023-01-11T11:29:43.409Z,3.58
2023-01-11T11:32:22.663Z,4.22
2023-01-11T11:34:52.777Z,3.03
2023-01-11T11:37:27.372Z,7.90
2023-01-11T11:39:56.274Z,5.40
2023-01-11T11:42:24.718Z,5.55
2023-01-11T11:45:18.218Z,10.98
2023-01-11T11:48:03.406Z,5.47
2023-01-11T11:50:44.690Z,6.88
2023-01-11T11:53:26.296Z,5.65
2023-01-11T11:55:54.891Z,7.40
2023-01-11T11:58:26.056Z,5.87
2023-01-11T12:00:54.630Z,9.55
2023-01-11T12:03:28.379Z,11.90
2023-01-11T12:06:02.592Z,7.07
2023-01-11T12:08:32.565Z,8.70
2023-01-11T12:11:03.476Z,4.40
2023-01-11T12:13:34.233Z,4.38
2023-01-11T12:16:04.652Z,4.18
2023-01-11T12:18:42.639Z,9.82
2023-01-11T12:21:20.974Z,17.95
2023-01-11T12:23:49.412Z,14.43
2023-01-11T12:26:22.388Z,8.32
2023-01-11T12:29:29.860Z,3.78
2023-01-11T12:32:12.040Z,3.42
2023-01-11T12:34:55.467Z,9.05
2023-01-11T12:37:37.575Z,10.73
2023-01-11T12:40:14.713Z,5.00
2023-01-11T12:42:59.574Z,1.52
2023-01-11T12:45:38.874Z,4.13
2023-01-11T12:48:31.916Z,3.10
2023-01-11T12:51:22.456Z,2.42
2023-01-11T12:54:13.406Z,2.03
2023-01-11T12:56:55.983Z,2.65
2023-01-11T12:59:38.283Z,2.15
2023-01-11T13:02:23.693Z,0.70
2023-01-11T13:05:02.543Z,3.58
2023-01-11T13:07:44.411Z,7.55
2023-01-11T13:10:26.974Z,4.15
2023-01-11T13:13:01.154Z,2.55
2023-01-11T13:15:41.821Z,3.45
2023-01-11T13:18:22.032Z,2.85
2023-01-11T13:21:01.409Z,2.95
2023-01-11T13:23:35.994Z,4.70
2023-01-11T13:26:16.032Z,3.60
2023-01-11T13:28:47.523Z,2.40
2023-01-11T13:31:16.286Z,2.88
2023-01-11T13:33:49.850Z,3.53
2023-01-11T13:36:23.841Z,3.75
2023-01-11T13:38:57.340Z,3.67
2023-01-11T13:41:31.226Z,3.10
2023-01-11T13:44:03.551Z,4.93
2023-01-11T13:46:47.177Z,4.25
2023-01-11T13:49:23.566Z,6.40
2023-01-11T13:51:57.420Z,3.88
2023-01-11T13:54:32.502Z,4.60
2023-01-11T13:57:07.771Z,3.15
2023-01-11T13:59:40.314Z,6.20
2023-01-11T14:02:18.847Z,5.15
2023-01-11T14:04:52.744Z,7.03
2023-01-11T14:07:31.812Z,7.85
2023-01-11T14:10:18.966Z,6.32
2023-01-11T14:13:39.893Z,6.20
2023-01-11T14:16:13.492Z,11.65
2023-01-11T14:18:49.435Z,13.18
2023-01-11T14:21:24.610Z,12.30
2023-01-11T14:23:55.054Z,12.70
2023-01-11T14:26:55.837Z,14.52
2023-01-11T14:30:00.068Z,9.82
2023-01-11T14:32:41.101Z,11.82
2023-01-11T14:35:38.415Z,15.07
2023-01-11T14:38:20.767Z,12.80
2023-01-11T14:41:08.234Z,8.57
2023-01-11T14:43:59.693Z,5.13
2023-01-11T14:46:59.103Z,3.75
2023-01-11T14:49:41.947Z,4.15
2023-01-11T14:52:15.499Z,4.10
2023-01-11T14:54:46.501Z,2.55
2023-01-11T14:57:37.062Z,3.08
2023-01-11T15:00:06.654Z,6.03
2023-01-11T15:02:36.955Z,5.05
2023-01-11T15:05:42.579Z,6.03
2023-01-11T15:08:20.895Z,6.05
2023-01-11T15:10:53.137Z,4.22
2023-01-11T15:13:23.747Z,5.50
2023-01-11T15:16:10.638Z,5.22
2023-01-11T15:18:47.084Z,7.55
2023-01-11T15:21:22.730Z,4.70
2023-01-11T15:23:54.354Z,5.72
2023-01-11T15:26:24.644Z,7.72
2023-01-11T15:28:54.586Z,19.48
2023-01-11T15:31:39.204Z,19.27
2023-01-11T15:34:24.973Z,23.15
2023-01-11T15:37:29.757Z,20.05
2023-01-11T15:40:00.142Z,23.10
2023-01-11T15:43:07.707Z,17.00
2023-01-11T15:46:19.373Z,14.70
2023-01-11T15:49:06.533Z,9.50
2023-01-11T15:51:57.555Z,8.60
2023-01-11T15:54:47.891Z,5.32
2023-01-11T15:57:48.632Z,3.95
2023-01-11T16:00:56.622Z,5.00
2023-01-11T16:03:54.632Z,6.35
2023-01-11T16:06:30.821Z,5.13
2023-01-11T16:09:07.742Z,5.97
2023-01-11T16:11:43.103Z,8.15
2023-01-11T16:14:55.593Z,10.27
2023-01-11T16:17:25.331Z,4.22
2023-01-11T16:19:56.949Z,3.00
2023-01-11T16:22:28.383Z,3.75
2023-01-11T16:25:01.823Z,6.65
2023-01-11T16:27:33.875Z,6.32
2023-01-11T16:30:02.872Z,6.65
2023-01-11T16:32:33.498Z,4.47
2023-01-11T16:35:02.812Z,6.55
2023-01-11T16:37:35.928Z,6.40
2023-01-11T16:40:14.229Z,4.32
2023-01-11T16:42:45.888Z,4.10
2023-01-11T16:45:16.257Z,8.15
2023-01-11T16:47:44.672Z,30.08
2023-01-11T16:50:21.814Z,37.65
2023-01-11T16:52:53.367Z,19.77
2023-01-11T16:55:36.532Z,16.60
2023-01-11T16:58:07.708Z,16.63
2023-01-11T17:00:38.513Z,13.95
2023-01-11T17:03:19.535Z,8.52
2023-01-11T17:06:18.751Z,7.75
2023-01-11T17:08:49.944Z,11.18
2023-01-11T17:11:29.495Z,12.90
2023-01-11T17:14:40.377Z,19.17
2023-01-11T17:17:10.548Z,7.70
2023-01-11T17:19:44.023Z,7.80
2023-01-11T17:22:21.692Z,4.80
2023-01-11T17:24:53.705Z,4.45
2023-01-11T17:27:25.911Z,5.60
2023-01-11T17:29:56.517Z,11.50
2023-01-11T17:32:30.730Z,14.38
2023-01-11T17:35:03.515Z,16.90
2023-01-11T17:37:32.067Z,13.18
2023-01-11T17:40:00.930Z,7.60
2023-01-11T17:42:48.302Z,8.20
2023-01-11T17:45:22.776Z,6.70
2023-01-11T17:47:53.525Z,5.05
2023-01-11T17:50:28.414Z,7.70
2023-01-11T17:53:15.021Z,4.50
2023-01-11T17:55:52.001Z,5.32
2023-01-11T17:58:26.325Z,5.80
2023-01-11T18:01:21.635Z,4.85
2023-01-11T18:03:51.947Z,6.45
2023-01-11T18:06:27.193Z,5.25
2023-01-11T18:08:56.987Z,6.90
2023-01-11T18:11:27.678Z,8.98
2023-01-11T18:14:00.179Z,3.75
2023-01-11T18:16:29.083Z,3.80
2023-01-11T18:18:57.562Z,1.90
2023-01-11T18:21:51.201Z,3.33
2023-01-11T18:24:43.545Z,4.25
2023-01-11T18:27:18.314Z,3.13
2023-01-11T18:29:50.864Z,3.35
2023-01-11T18:32:19.895Z,8.57
2023-01-11T18:34:51.307Z,4.35
2023-01-11T18:37:19.810Z,4.18
2023-01-11T18:39:48.104Z,4.73
2023-01-11T18:42:19.323Z,3.72
2023-01-11T18:44:49.748Z,4.00
2023-01-11T18:47:20.379Z,2.05
2023-01-11T18:49:48.794Z,2.17
2023-01-11T18:52:18.516Z,3.75
2023-01-11T18:54:50.681Z,3.83
2023-01-11T18:57:19.279Z,4.22
2023-01-11T18:59:49.454Z,4.17
2023-01-11T19:02:22.375Z,3.35
2023-01-11T19:04:52.727Z,5.43
2023-01-11T19:07:23.616Z,5.30
2023-01-11T19:09:52.390Z,5.13
2023-01-11T19:12:21.909Z,4.75
2023-01-11T19:17:21.215Z,4.20
2023-01-11T19:19:49.627Z,4.45
2023-01-11T19:22:20.062Z,6.60
2023-01-11T19:24:50.215Z,7.53
2023-01-11T19:27:19.111Z,4.93
2023-01-11T19:29:47.684Z,6.75
2023-01-11T19:32:18.590Z,5.95
2023-01-11T19:34:47.478Z,6.97
2023-01-11T19:37:16.050Z,7.93
2023-01-11T19:39:44.513Z,8.45
2023-01-11T19:42:12.877Z,9.25
2023-01-11T19:44:41.637Z,10.80
2023-01-11T19:47:14.587Z,10.93
2023-01-11T19:49:45.298Z,11.85
2023-01-11T19:52:19.049Z,11.18
2023-01-11T19:54:48.342Z,10.50
2023-01-11T19:57:20.238Z,9.85
2023-01-11T19:59:49.340Z,26.23
2023-01-11T20:02:19.263Z,23.02
2023-01-11T20:04:49.168Z,21.55
2023-01-11T20:07:18.840Z,15.00
2023-01-11T20:09:47.092Z,11.15
2023-01-11T20:12:16.295Z,8.80
2023-01-11T20:14:48.019Z,4.55
2023-01-11T20:17:21.944Z,3.78
2023-01-11T20:19:54.723Z,3.50
2023-01-11T20:22:23.655Z,3.10
2023-01-11T20:24:52.222Z,2.38
2023-01-11T20:27:20.476Z,2.95
2023-01-11T20:29:50.741Z,2.83
2023-01-11T20:32:39.786Z,2.45
2023-01-11T20:35:11.163Z,2.80
2023-01-11T20:37:39.388Z,2.78
2023-01-11T20:40:11.835Z,3.85
2023-01-11T20:42:41.281Z,5.65
2023-01-11T20:45:11.070Z,3.90
2023-01-11T20:47:39.374Z,4.63
2023-01-11T20:50:12.844Z,12.35
2023-01-11T20:52:41.206Z,10.07
2023-01-11T20:55:10.582Z,5.88
2023-01-11T20:57:39.832Z,5.13
2023-01-11T21:02:38.653Z,2.25
2023-01-11T21:05:09.360Z,2.15
2023-01-11T21:07:37.510Z,3.08
2023-01-11T21:10:06.504Z,2.95
2023-01-11T21:12:34.813Z,2.83
2023-01-11T21:15:03.557Z,3.20
2023-01-11T21:17:32.223Z,2.97
2023-01-11T21:20:01.572Z,2.72
2023-01-11T21:22:31.092Z,1.70
2023-01-11T21:27:27.408Z,2.00
2023-01-11T21:29:55.703Z,2.30
2023-01-11T21:32:25.314Z,2.53
2023-01-11T21:37:24.608Z,2.67
2023-01-11T21:39:54.458Z,1.90
2023-01-11T21:42:24.511Z,2.40
2023-01-11T21:44:52.933Z,2.30
2023-01-11T21:47:22.237Z,2.10
2023-01-11T21:49:50.550Z,3.03
2023-01-11T21:52:18.702Z,3.38
2023-01-11T21:54:47.763Z,7.43
2023-01-11T21:57:17.545Z,6.85
2023-01-11T22:02:16.707Z,4.65
2023-01-11T22:04:46.029Z,3.38
2023-01-11T22:07:14.201Z,4.43
2023-01-11T22:09:56.396Z,4.68
2023-01-11T22:12:32.208Z,4.88
2023-01-11T22:15:00.668Z,3.58
2023-01-11T22:17:28.803Z,3.33
2023-01-11T22:19:57.851Z,3.03
2023-01-11T22:22:26.875Z,2.60
2023-01-11T22:24:56.636Z,3.63
2023-01-11T22:29:54.849Z,2.90
2023-01-11T22:32:23.052Z,3.78
2023-01-11T22:34:51.421Z,3.35
2023-01-11T22:37:19.816Z,3.38
2023-01-11T22:39:48.483Z,3.15
2023-01-11T22:42:16.825Z,3.70
2023-01-11T22:44:45.174Z,2.97
2023-01-11T22:47:14.979Z,4.88
2023-01-11T22:49:43.547Z,3.90
2023-01-11T22:52:12.090Z,4.15
2023-01-11T22:54:40.276Z,4.38
2023-01-11T22:57:08.671Z,4.40
2023-01-11T22:59:37.063Z,3.60
2023-01-11T23:02:07.511Z,3.85
2023-01-11T23:04:37.472Z,3.80
2023-01-11T23:07:06.414Z,3.80
2023-01-11T23:09:35.258Z,3.60
2023-01-11T23:12:21.203Z,4.25
2023-01-11T23:14:49.907Z,5.15
2023-01-11T23:17:19.348Z,4.07
2023-01-11T23:19:48.915Z,4.78
2023-01-11T23:24:45.442Z,4.28
2023-01-11T23:27:13.837Z,3.80
2023-01-11T23:29:42.203Z,3.75
2023-01-11T23:32:10.275Z,4.00
2023-01-11T23:34:38.521Z,4.75
2023-01-11T23:37:09.064Z,5.00
2023-01-11T23:39:37.319Z,4.63
2023-01-11T23:42:23.208Z,6.20
2023-01-11T23:44:51.259Z,7.85
2023-01-11T23:47:21.398Z,4.93
2023-01-11T23:49:49.861Z,4.28
2023-01-11T23:52:20.675Z,6.65
2023-01-11T23:54:52.015Z,6.63
2023-01-11T23:57:21.746Z,4.88
2023-01-11T23:59:50.054Z,5.57
